Time;durP1;ratioP1;P1;durP2;ratioP2;P2;SDS_P1;SDS_P2;PMS_P1;PMS_P2;Temp;Humidity;BMP_temperature;BMP_pressure;BME280_temperature;BME280_humidity;BME280_pressure;Samples;Min_cycle;Max_cycle;Signal;HPM_P1;HPM_P2
2023/11/13 00:02:02;;;;;;;0.80;0.80;;;-1.00;99.90;;;;;;1946372;72;27027;-85
2023/11/13 00:07:31;;;;;;;1.07;0.97;;;-1.00;99.90;;;;;;1941771;72;27006;-85
2023/11/13 00:10:20;;;;;;;0.90;0.90;;;-1.00;99.90;;;;;;1901984;75;25301;-84
2023/11/13 00:13:10;;;;;;;1.07;1.00;;;-1.10;99.90;;;;;;1898225;74;26578;-84
2023/11/13 00:15:58;;;;;;;1.50;1.17;;;-1.10;99.90;;;;;;1902463;74;25932;-84
2023/11/13 00:21:28;;;;;;;1.00;1.00;;;-1.00;99.90;;;;;;1948176;72;27361;-85
2023/11/13 00:24:17;;;;;;;1.87;1.13;;;-1.10;99.90;;;;;;1930335;73;25229;-85
2023/11/13 00:27:06;;;;;;;2.63;1.03;;;-1.10;99.90;;;;;;1932883;73;25215;-84
2023/11/13 00:29:55;;;;;;;0.87;0.83;;;-1.20;99.90;;;;;;1932594;73;25651;-85
2023/11/13 00:32:43;;;;;;;2.37;1.20;;;-1.20;99.90;;;;;;1929341;73;25285;-85
2023/11/13 00:35:31;;;;;;;1.00;1.00;;;-1.20;99.90;;;;;;1931497;73;25260;-84
2023/11/13 00:38:20;;;;;;;2.27;0.90;;;-1.30;99.90;;;;;;1935066;73;25296;-84
2023/11/13 00:41:12;;;;;;;1.83;1.10;;;-1.30;99.90;;;;;;1930009;73;25917;-85
2023/11/13 00:44:02;;;;;;;1.23;1.17;;;-1.30;99.90;;;;;;1901244;74;25860;-85
2023/11/13 00:46:51;;;;;;;2.40;1.20;;;-1.20;99.90;;;;;;1896244;73;25740;-84
2023/11/13 00:49:40;;;;;;;0.90;0.90;;;-1.30;99.90;;;;;;1902160;73;25232;-84
2023/11/13 00:52:29;;;;;;;1.20;1.00;;;-1.40;99.90;;;;;;1898339;74;25716;-84
2023/11/13 00:55:17;;;;;;;1.70;1.20;;;-1.30;99.90;;;;;;1905695;74;25258;-84
2023/11/13 00:58:05;;;;;;;1.47;1.20;;;-1.30;99.90;;;;;;1901479;73;25821;-84
2023/11/13 01:00:54;;;;;;;1.00;1.00;;;-1.30;99.90;;;;;;1903257;74;25686;-84
2023/11/13 01:06:26;;;;;;;0.90;0.90;;;-1.40;99.90;;;;;;1910852;73;27680;-84
2023/11/13 01:11:56;;;;;;;2.10;1.20;;;-1.40;99.90;;;;;;1920105;72;27112;-84
2023/11/13 01:14:44;;;;;;;1.30;1.20;;;-1.30;99.90;;;;;;1890443;74;25279;-84
2023/11/13 01:17:33;;;;;;;0.97;0.97;;;-1.30;99.90;;;;;;1885845;74;25341;-84
2023/11/13 01:20:23;;;;;;;1.10;1.10;;;-1.20;99.90;;;;;;1893110;74;25994;-84
2023/11/13 01:23:12;;;;;;;1.40;1.10;;;-1.20;99.90;;;;;;1897814;74;25269;-84
2023/11/13 01:26:01;;;;;;;1.40;1.20;;;-1.20;99.90;;;;;;1891040;74;25223;-84
2023/11/13 01:31:33;;;;;;;1.40;1.20;;;-1.10;99.90;;;;;;1888629;74;27086;-84
2023/11/13 01:37:03;;;;;;;1.13;1.03;;;-1.10;99.90;;;;;;1936871;72;27168;-84
2023/11/13 01:39:51;;;;;;;1.30;1.20;;;-1.10;99.90;;;;;;1894099;75;25722;-84
2023/11/13 01:42:40;;;;;;;2.57;1.20;;;-1.10;99.90;;;;;;1884065;75;25331;-84
2023/11/13 01:45:28;;;;;;;2.30;1.23;;;-1.10;99.90;;;;;;1878403;75;25675;-84
2023/11/13 01:48:18;;;;;;;2.27;1.20;;;-1.10;99.90;;;;;;1878447;75;25831;-84
2023/11/13 01:51:08;;;;;;;2.10;1.40;;;-1.10;99.90;;;;;;1872633;75;25280;-85
2023/11/13 01:53:57;;;;;;;1.77;1.13;;;-1.10;99.90;;;;;;1876758;75;25773;-84
2023/11/13 01:56:46;;;;;;;2.97;1.53;;;-1.10;99.90;;;;;;1867997;75;25275;-84
2023/11/13 01:59:38;;;;;;;1.30;1.20;;;-1.10;99.90;;;;;;1873157;75;25242;-84
2023/11/13 02:05:06;;;;;;;1.40;1.30;;;-1.00;99.90;;;;;;1928559;72;27017;-83
2023/11/13 02:07:55;;;;;;;1.23;1.13;;;-1.00;99.90;;;;;;1902299;75;25295;-84
2023/11/13 02:10:44;;;;;;;1.30;1.20;;;-1.00;99.90;;;;;;1896978;74;25229;-84
2023/11/13 02:13:34;;;;;;;1.43;1.30;;;-1.00;99.90;;;;;;1903397;75;25850;-83
2023/11/13 02:16:22;;;;;;;1.27;1.17;;;-1.00;99.90;;;;;;1910773;75;25343;-84
2023/11/13 02:19:16;;;;;;;1.10;1.10;;;-1.00;99.90;;;;;;1905995;74;25343;-84
2023/11/13 02:22:04;;;;;;;1.17;1.07;;;-1.00;99.90;;;;;;1911633;75;25691;-84
2023/11/13 02:24:53;;;;;;;2.07;1.30;;;-1.10;99.90;;;;;;1906177;74;25529;-83
2023/11/13 02:27:42;;;;;;;1.67;1.47;;;-1.10;99.90;;;;;;1902308;74;25319;-84
2023/11/13 02:30:32;;;;;;;1.90;1.20;;;-1.10;99.90;;;;;;1903314;74;25304;-84
2023/11/13 02:36:01;;;;;;;1.40;1.30;;;-1.00;99.90;;;;;;1936776;72;27009;-85
2023/11/13 02:38:50;;;;;;;1.63;1.30;;;-1.00;99.90;;;;;;1893991;75;25716;-85
2023/11/13 02:41:38;;;;;;;1.40;1.20;;;-1.10;99.90;;;;;;1892937;75;25287;-85
2023/11/13 02:44:27;;;;;;;1.50;1.30;;;-1.10;99.90;;;;;;1866508;76;25614;-85
2023/11/13 02:47:17;;;;;;;1.10;1.10;;;-1.10;99.90;;;;;;1866128;76;25237;-85
2023/11/13 02:50:07;;;;;;;1.27;1.17;;;-1.10;99.90;;;;;;1868713;75;25231;-85
2023/11/13 02:52:56;;;;;;;1.67;1.37;;;-1.20;99.90;;;;;;1869217;75;25221;-85
2023/11/13 02:55:45;;;;;;;1.07;1.00;;;-1.10;99.90;;;;;;1872384;76;25311;-83
2023/11/13 02:58:36;;;;;;;1.20;1.10;;;-1.20;99.90;;;;;;1865557;76;25342;-85
2023/11/13 03:01:24;;;;;;;1.50;1.30;;;-1.10;99.90;;;;;;1869762;75;25531;-85
2023/11/13 03:04:13;;;;;;;1.40;1.30;;;-1.20;99.90;;;;;;1871880;76;25241;-85
2023/11/13 03:09:46;;;;;;;3.33;1.30;;;-1.30;99.90;;;;;;1937081;72;27059;-86
2023/11/13 03:15:14;;;;;;;1.20;1.10;;;-1.30;99.90;;;;;;1943765;72;27190;-84
2023/11/13 03:18:02;;;;;;;1.30;1.20;;;-1.30;99.90;;;;;;1922129;73;25303;-85
2023/11/13 03:20:51;;;;;;;1.70;1.23;;;-1.40;99.90;;;;;;1921269;73;25293;-85
2023/11/13 03:23:40;;;;;;;1.40;1.30;;;-1.40;99.90;;;;;;1930670;73;25193;-85
2023/11/13 03:29:08;;;;;;;1.50;1.40;;;-1.50;99.90;;;;;;1931988;72;27013;-85
2023/11/13 03:34:38;;;;;;;2.13;1.30;;;-1.50;99.90;;;;;;1925323;72;27077;-85
2023/11/13 03:37:27;;;;;;;1.77;1.30;;;-1.60;99.90;;;;;;1898002;73;25328;-85
2023/11/13 03:40:16;;;;;;;1.47;1.20;;;-1.60;99.90;;;;;;1908367;74;25225;-85
2023/11/13 03:43:04;;;;;;;2.70;1.33;;;-1.60;99.90;;;;;;1894561;73;25267;-85
2023/11/13 03:45:53;;;;;;;1.57;1.30;;;-1.60;99.90;;;;;;1846343;76;25712;-85
2023/11/13 03:51:23;;;;;;;1.50;1.33;;;-1.70;99.90;;;;;;1888519;73;27761;-85
2023/11/13 03:54:11;;;;;;;1.57;1.23;;;-1.70;99.90;;;;;;1842646;76;25273;-85
2023/11/13 03:59:45;;;;;;;3.20;1.40;;;-1.80;99.90;;;;;;1924600;72;27033;-85
2023/11/13 04:02:34;;;;;;;2.47;1.50;;;-1.80;99.90;;;;;;1899252;74;25250;-85
2023/11/13 04:08:04;;;;;;;1.40;1.30;;;-1.90;99.90;;;;;;1925837;72;27635;-85
2023/11/13 04:13:38;;;;;;;4.50;1.50;;;-2.00;99.90;;;;;;1933296;72;27103;-85
2023/11/13 04:16:27;;;;;;;1.67;1.30;;;-2.00;99.90;;;;;;1900709;75;25938;-85
2023/11/13 04:19:16;;;;;;;1.57;1.30;;;-2.00;99.90;;;;;;1896309;75;25275;-85
2023/11/13 04:22:06;;;;;;;2.47;1.40;;;-2.10;99.90;;;;;;1896342;75;25225;-85
2023/11/13 04:27:34;;;;;;;2.60;1.50;;;-2.30;99.90;;;;;;1923177;72;27158;-85
2023/11/13 04:30:23;;;;;;;1.83;1.40;;;-2.30;99.90;;;;;;1862106;75;25348;-85
2023/11/13 04:33:12;;;;;;;5.50;1.60;;;-2.30;99.90;;;;;;1899152;74;25207;-85
2023/11/13 04:38:42;;;;;;;2.40;1.50;;;-2.30;99.90;;;;;;2011632;69;27017;-85
2023/11/13 04:41:30;;;;;;;2.50;1.50;;;-2.30;99.90;;;;;;1984560;71;25244;-85
2023/11/13 04:44:19;;;;;;;2.63;1.57;;;-2.30;99.90;;;;;;1950950;73;25288;-85
2023/11/13 04:47:08;;;;;;;1.60;1.33;;;-2.30;99.90;;;;;;1951652;73;25205;-85
2023/11/13 04:49:57;;;;;;;1.53;1.43;;;-2.30;99.90;;;;;;1940567;73;25259;-85
2023/11/13 04:52:46;;;;;;;6.00;1.60;;;-2.30;99.90;;;;;;1948449;73;25228;-85
2023/11/13 04:55:35;;;;;;;1.40;1.30;;;-2.30;99.90;;;;;;1943875;72;25226;-85
2023/11/13 05:01:05;;;;;;;2.20;1.70;;;-2.20;99.90;;;;;;1931326;72;27118;-85
2023/11/13 05:03:54;;;;;;;1.60;1.50;;;-2.20;99.90;;;;;;1912292;73;25227;-85
2023/11/13 05:09:26;;;;;;;3.27;1.50;;;-2.20;99.90;;;;;;1934127;72;27125;-85
2023/11/13 05:12:15;;;;;;;1.80;1.40;;;-2.20;99.90;;;;;;1910006;73;25305;-85
2023/11/13 05:15:05;;;;;;;2.60;1.60;;;-2.30;99.90;;;;;;1906718;73;25224;-85
2023/11/13 05:20:39;;;;;;;1.97;1.40;;;-2.30;99.90;;;;;;2024412;69;27678;-85
2023/11/13 05:23:26;;;;;;;2.87;1.70;;;-2.30;99.90;;;;;;2013130;69;25308;-85
2023/11/13 05:26:14;;;;;;;8.30;1.60;;;-2.40;99.90;;;;;;2012403;69;25418;-85
2023/11/13 05:29:03;;;;;;;2.13;1.50;;;-2.40;99.90;;;;;;2009606;69;25244;-85
2023/11/13 05:34:33;;;;;;;1.67;1.57;;;-2.50;99.90;;;;;;1933355;72;27079;-85
2023/11/13 05:37:22;;;;;;;3.50;1.30;;;-2.60;99.90;;;;;;1902646;74;25392;-85
2023/11/13 05:40:16;;;;;;;5.37;1.80;;;-2.70;99.90;;;;;;1896944;75;25724;-85
2023/11/13 05:43:04;;;;;;;4.97;2.00;;;-2.70;99.90;;;;;;1891279;75;25264;-85
2023/11/13 05:45:52;;;;;;;4.17;2.50;;;-2.80;99.90;;;;;;1878499;75;25234;-85
2023/11/13 05:48:41;;;;;;;9.67;2.57;;;-2.90;99.90;;;;;;1885894;75;25196;-85
2023/11/13 05:51:29;;;;;;;6.57;2.20;;;-2.90;99.90;;;;;;1885904;75;26512;-85
2023/11/13 05:56:58;;;;;;;2.80;2.03;;;-2.90;99.90;;;;;;1929414;72;27086;-84
2023/11/13 05:59:46;;;;;;;7.73;2.43;;;-2.80;99.90;;;;;;1906123;73;25402;-86
2023/11/13 06:02:34;;;;;;;2.23;2.07;;;-2.80;99.90;;;;;;1871315;76;25291;-85
2023/11/13 06:05:23;;;;;;;3.50;2.23;;;-2.80;99.90;;;;;;1904503;74;25389;-86
2023/11/13 06:08:11;;;;;;;3.20;2.40;;;-2.90;99.90;;;;;;1901046;73;26474;-90
2023/11/13 06:11:00;;;;;;;4.73;2.43;;;-3.00;99.90;;;;;;1894376;73;25239;-90
2023/11/13 06:13:48;;;;;;;4.43;2.30;;;-3.10;99.90;;;;;;1895771;73;25215;-90
2023/11/13 06:16:37;;;;;;;3.40;2.10;;;-3.20;99.90;;;;;;1893824;73;25241;-90
2023/11/13 06:19:26;;;;;;;4.00;2.10;;;-3.20;99.90;;;;;;1906351;75;25755;-90
2023/11/13 06:22:15;;;;;;;3.47;2.17;;;-3.20;99.90;;;;;;1903885;75;25861;-90
2023/11/13 06:25:04;;;;;;;3.20;2.17;;;-3.20;99.90;;;;;;1903659;73;25250;-90
2023/11/13 06:27:52;;;;;;;3.67;2.10;;;-3.20;99.90;;;;;;1882181;75;25322;-90
2023/11/13 06:30:42;;;;;;;12.30;2.37;;;-3.20;99.90;;;;;;1889697;73;25591;-90
2023/11/13 06:33:31;;;;;;;3.07;2.00;;;-3.30;99.90;;;;;;1928151;73;25279;-90
2023/11/13 06:36:20;;;;;;;3.07;1.90;;;-3.40;99.90;;;;;;1895442;73;25224;-90
2023/11/13 06:39:08;;;;;;;9.30;2.13;;;-3.50;99.90;;;;;;1900111;73;25268;-90
2023/11/13 06:44:49;;;;;;;7.37;2.50;;;-3.40;99.90;;;;;;1964660;72;26946;-90
2023/11/13 06:47:38;;;;;;;4.20;2.30;;;-3.30;99.90;;;;;;1929819;72;25265;-90
2023/11/13 06:50:26;;;;;;;3.70;2.50;;;-3.30;99.90;;;;;;1938196;73;25690;-90
2023/11/13 06:55:59;;;;;;;4.00;2.30;;;-3.40;99.90;;;;;;1986191;71;27520;-90
2023/11/13 06:58:49;;;;;;;5.93;2.37;;;;;;;;;;1868626;75;25286;-90
2023/11/13 07:01:41;;;;;;;7.60;2.30;;;-3.60;99.90;;;;;;1854790;76;25648;-90
2023/11/13 07:04:30;;;;;;;5.23;2.37;;;-3.60;99.90;;;;;;1866778;75;25393;-91
2023/11/13 07:07:19;;;;;;;4.07;2.23;;;-3.60;99.90;;;;;;1893965;75;25297;-90
2023/11/13 07:10:12;;;;;;;6.30;2.03;;;-3.60;99.90;;;;;;1827743;76;25326;-90
2023/11/13 07:13:00;;;;;;;9.03;2.97;;;-3.50;99.90;;;;;;1867213;75;25279;-90
2023/11/13 07:15:48;;;;;;;6.60;4.03;;;-3.50;99.90;;;;;;1865086;76;25259;-91
2023/11/13 07:18:37;;;;;;;4.67;2.90;;;-3.40;99.90;;;;;;1858443;75;25297;-90
2023/11/13 07:21:26;;;;;;;10.30;2.87;;;-3.50;99.90;;;;;;1852655;76;25294;-91
2023/11/13 07:27:05;;;;;;;6.43;2.77;;;-3.50;99.90;;;;;;1943906;72;26986;-91
2023/11/13 07:29:56;;;;;;;8.70;2.77;;;-3.40;99.90;;;;;;1923250;73;25623;-91
2023/11/13 07:32:45;;;;;;;5.60;2.30;;;-3.40;99.90;;;;;;1931531;73;25594;-90
2023/11/13 07:35:36;;;;;;;3.17;2.00;;;-3.40;99.90;;;;;;1919721;73;25635;-90
2023/11/13 07:38:24;;;;;;;7.60;2.03;;;-3.30;99.90;;;;;;1928372;73;25763;-92
2023/11/13 07:41:13;;;;;;;4.07;2.10;;;-3.20;99.90;;;;;;1927264;73;25278;-90
2023/11/13 07:44:02;;;;;;;3.73;2.30;;;-3.20;99.90;;;;;;1906678;73;25344;-91
2023/11/13 07:47:02;;;;;;;2.63;1.83;;;-3.10;99.90;;;;;;1911083;73;25832;-90
2023/11/13 08:14:15;;;;;;;3.63;2.20;;;-3.00;99.90;;;;;;1847416;75;26334;-90
2023/11/13 08:19:43;;;;;;;5.53;2.07;;;-1.30;99.90;;;;;;1950830;72;28154;-91
2023/11/13 08:22:35;;;;;;;4.23;2.20;;;-1.10;99.90;;;;;;1925509;73;25336;-90
2023/11/13 08:25:22;;;;;;;4.07;2.10;;;-0.90;99.90;;;;;;1931490;73;25215;-90
2023/11/13 08:28:12;;;;;;;3.30;2.17;;;-0.90;99.90;;;;;;1940513;73;25261;-90
2023/11/13 08:31:01;;;;;;;4.90;2.00;;;-0.90;99.90;;;;;;1922361;73;25228;-90
2023/11/13 08:33:54;;;;;;;4.07;2.10;;;-1.00;99.90;;;;;;1930185;73;25999;-90
2023/11/13 08:36:45;;;;;;;2.53;1.70;;;-1.10;99.90;;;;;;1922077;73;25246;-90
2023/11/13 08:42:54;;;;;;;2.60;1.73;;;-1.00;99.90;;;;;;1949951;72;26752;-90
2023/11/13 08:58:53;;;;;;;2.33;1.47;;;-0.80;99.90;;;;;;1856420;76;27117;-89
2023/11/13 09:04:23;;;;;;;1.93;1.50;;;-0.80;99.90;;;;;;1926507;72;27108;-90
2023/11/13 09:07:12;;;;;;;1.53;1.43;;;-0.70;99.90;;;;;;1926279;73;25277;-90
2023/11/13 09:12:43;;;;;;;1.43;1.33;;;-0.60;99.90;;;;;;1943029;72;27190;-89
2023/11/13 09:15:33;;;;;;;1.97;1.37;;;-0.50;99.90;;;;;;1905295;75;25657;-89
2023/11/13 09:21:08;;;;;;;2.57;1.47;;;-0.40;99.90;;;;;;1944388;72;26963;-89
2023/11/13 09:23:56;;;;;;;1.70;1.40;;;-0.30;99.90;;;;;;1932366;73;25206;-89
2023/11/13 09:26:48;;;;;;;3.33;1.63;;;-0.30;99.90;;;;;;1944263;73;25666;-89
2023/11/13 09:29:38;;;;;;;1.40;1.30;;;-0.20;99.90;;;;;;1937343;73;25695;-89
2023/11/13 09:32:27;;;;;;;1.90;1.40;;;-0.30;99.90;;;;;;1929552;73;25742;-89
2023/11/13 09:35:20;;;;;;;1.73;1.50;;;-0.20;99.90;;;;;;1932494;73;25803;-89
2023/11/13 09:38:09;;;;;;;2.53;1.30;;;-0.20;99.90;;;;;;1924155;73;25225;-89
2023/11/13 09:41:01;;;;;;;1.40;1.30;;;-0.10;99.90;;;;;;1916239;73;26078;-89
2023/11/13 09:43:48;;;;;;;2.17;1.70;;;-0.30;99.90;;;;;;1918963;73;25394;-89
2023/11/13 09:49:54;;;;;;;3.33;1.67;;;-0.10;99.90;;;;;;1959221;71;27171;-89
2023/11/13 09:52:45;;;;;;;2.90;1.70;;;0.10;99.90;;;;;;1972600;72;25249;-89
2023/11/13 09:55:41;;;;;;;1.77;1.60;;;0.10;99.90;;;;;;1991926;70;25123;-89
2023/11/13 10:01:20;;;;;;;1.67;1.47;;;0.10;99.90;;;;;;1943551;72;28434;-89
2023/11/13 10:04:10;;;;;;;2.93;1.83;;;0.20;99.90;;;;;;1913976;73;25253;-89
2023/11/13 10:06:59;;;;;;;4.07;1.50;;;0.30;99.90;;;;;;1917720;73;25231;-89
2023/11/13 10:10:03;;;;;;;3.50;1.80;;;0.20;99.90;;;;;;1915069;73;25831;-89
2023/11/13 10:15:33;;;;;;;1.80;1.53;;;0.00;99.90;;;;;;1941293;72;27584;-89
2023/11/13 11:12:27;;;;;;;1.77;1.60;;;0.70;99.90;;;;;;1941359;72;27084;-88
2023/11/13 11:15:32;;;;;;;2.07;1.10;;;0.90;99.90;;;;;;1923037;73;25220;-89
2023/11/13 11:35:13;;;;;;;1.33;1.23;;;1.50;99.90;;;;;;1944599;72;27063;-87
2023/11/13 11:38:22;;;;;;;1.63;1.53;;;1.60;99.90;;;;;;1925598;73;25287;-89
2023/11/13 11:43:58;;;;;;;1.93;1.50;;;1.50;99.90;;;;;;1902923;72;27188;-89
2023/11/13 11:46:48;;;;;;;1.07;1.03;;;1.70;99.90;;;;;;1867634;75;25671;-88
2023/11/13 11:49:44;;;;;;;1.63;1.30;;;1.70;99.90;;;;;;1847692;77;25298;-89
2023/11/13 11:52:51;;;;;;;3.30;1.30;;;1.50;99.90;;;;;;1809292;78;25266;-89
2023/11/13 11:55:38;;;;;;;3.30;1.20;;;1.50;99.90;;;;;;1844654;76;25217;-89
2023/11/13 12:02:46;;;;;;;1.40;1.30;;;1.60;99.90;;;;;;1929878;72;26408;-88
2023/11/13 12:05:34;;;;;;;1.33;1.20;;;1.90;99.90;;;;;;1916135;74;25214;-89
2023/11/13 12:08:23;;;;;;;1.30;1.20;;;1.90;99.90;;;;;;1946166;73;25205;-89
2023/11/13 12:11:13;;;;;;;2.20;1.40;;;1.80;99.90;;;;;;1960737;72;25818;-89
2023/11/13 12:14:02;;;;;;;2.70;1.60;;;1.90;99.90;;;;;;1996044;71;25277;-89
2023/11/13 12:16:51;;;;;;;2.60;1.43;;;1.90;99.90;;;;;;1981790;71;25613;-89
2023/11/13 12:22:33;;;;;;;1.70;1.20;;;2.00;99.90;;;;;;1955806;72;27148;-89
2023/11/13 12:28:15;;;;;;;1.00;1.00;;;2.10;99.90;;;;;;1944020;72;26964;-88
2023/11/13 12:31:17;;;;;;;2.23;1.50;;;1.80;99.90;;;;;;1942074;73;25388;-88
2023/11/13 12:34:06;;;;;;;1.37;1.20;;;1.70;99.90;;;;;;1852446;76;25338;-88
2023/11/13 12:39:45;;;;;;;2.63;1.50;;;1.50;99.90;;;;;;1967295;71;27628;-87
2023/11/13 12:42:32;;;;;;;2.17;1.60;;;1.60;99.90;;;;;;1928616;73;25274;-88
2023/11/13 12:45:21;;;;;;;15.83;6.17;;;1.50;99.90;;;;;;1932868;73;25285;-89
2023/11/13 12:48:10;;;;;;;1.37;1.23;;;1.50;99.90;;;;;;1929381;73;26622;-88
2023/11/13 12:51:00;;;;;;;1.47;1.30;;;1.60;99.90;;;;;;1925934;73;25180;-87
2023/11/13 12:53:49;;;;;;;3.87;1.40;;;1.50;99.90;;;;;;1922804;73;25796;-88
2023/11/13 12:56:43;;;;;;;2.57;1.40;;;1.40;99.90;;;;;;1934046;73;25297;-88
2023/11/13 12:59:32;;;;;;;2.10;1.50;;;1.40;99.90;;;;;;1918792;73;25296;-88
2023/11/13 13:02:21;;;;;;;1.70;1.47;;;1.50;99.90;;;;;;1921276;73;25310;-88
2023/11/13 13:08:33;;;;;;;2.17;1.40;;;1.20;99.90;;;;;;1986038;71;26856;-89
2023/11/13 13:11:23;;;;;;;2.00;1.50;;;1.40;99.90;;;;;;1952176;72;25707;-89
2023/11/13 13:14:17;;;;;;;1.60;1.33;;;1.60;99.90;;;;;;2038946;69;25195;-89
2023/11/13 13:17:07;;;;;;;1.63;1.53;;;1.50;99.90;;;;;;2036655;69;25259;-89
2023/11/13 13:19:56;;;;;;;3.73;1.90;;;1.40;99.90;;;;;;2033633;69;25203;-87
2023/11/13 13:22:44;;;;;;;4.03;2.10;;;1.40;99.90;;;;;;2036512;69;25278;-87
2023/11/13 13:28:13;;;;;;;5.83;2.23;;;1.10;99.90;;;;;;1920261;72;27086;-87
2023/11/13 13:31:01;;;;;;;5.53;2.33;;;1.10;99.90;;;;;;1910474;74;25242;-89
2023/11/13 13:33:51;;;;;;;3.27;2.07;;;1.10;99.90;;;;;;1900853;75;25332;-88
2023/11/13 13:36:39;;;;;;;2.27;1.60;;;0.90;99.90;;;;;;1895090;75;25246;-88
2023/11/13 13:39:31;;;;;;;13.60;1.77;;;0.80;99.90;;;;;;1901985;74;25280;-88
2023/11/13 13:42:18;;;;;;;5.27;1.90;;;0.80;99.90;;;;;;1904838;74;25354;-89
2023/11/13 13:45:11;;;;;;;2.90;1.90;;;0.80;99.90;;;;;;1894285;75;25252;-89
2023/11/13 13:48:01;;;;;;;6.33;1.90;;;0.90;99.90;;;;;;1900635;75;25222;-86
2023/11/13 13:50:47;;;;;;;2.97;1.70;;;1.00;99.90;;;;;;1899222;75;25771;-88
2023/11/13 13:53:37;;;;;;;5.03;2.00;;;0.90;99.90;;;;;;1901485;75;26498;-89
2023/11/13 13:56:28;;;;;;;5.57;2.07;;;0.90;99.90;;;;;;1886894;75;25245;-89
2023/11/13 13:59:16;;;;;;;3.20;1.80;;;1.00;99.90;;;;;;1902987;75;25737;-88
2023/11/13 14:02:05;;;;;;;3.03;1.90;;;1.00;99.90;;;;;;1901306;75;25292;-89
2023/11/13 14:04:54;;;;;;;18.03;6.40;;;0.90;99.90;;;;;;1859136;76;25848;-88
2023/11/13 14:21:12;;;;;;;5.07;2.67;;;0.80;99.90;;;;;;1935825;72;27133;-86
2023/11/13 14:26:40;;;;;;;3.87;2.20;;;0.90;99.90;;;;;;1938064;72;27574;-86
2023/11/13 14:29:28;;;;;;;7.60;1.93;;;0.80;99.90;;;;;;1893257;75;25652;-89
2023/11/13 14:32:18;;;;;;;3.77;2.07;;;0.80;99.90;;;;;;1887476;75;25239;-88
2023/11/13 14:35:09;;;;;;;3.97;1.87;;;0.80;99.90;;;;;;1903251;75;25316;-89
2023/11/13 14:40:38;;;;;;;7.00;2.53;;;0.80;99.90;;;;;;1928621;72;26949;-87
2023/11/13 14:46:09;;;;;;;4.60;2.70;;;0.70;99.90;;;;;;1971587;71;27094;-86
2023/11/13 14:48:58;;;;;;;7.60;4.30;;;0.70;99.90;;;;;;1927321;73;25299;-88
2023/11/13 14:51:46;;;;;;;6.07;2.70;;;0.50;99.90;;;;;;1932499;74;25208;-89
2023/11/13 14:54:36;;;;;;;4.93;2.43;;;0.50;99.90;;;;;;1935458;74;25206;-88
2023/11/13 14:57:24;;;;;;;3.93;2.30;;;0.50;99.90;;;;;;1925450;74;25275;-88
2023/11/13 15:00:16;;;;;;;3.50;2.23;;;0.60;99.90;;;;;;1927422;74;25304;-88
2023/11/13 15:03:06;;;;;;;8.63;3.83;;;0.50;99.90;;;;;;1918067;74;25288;-88
2023/11/13 15:05:54;;;;;;;5.33;2.40;;;0.40;99.90;;;;;;1909847;74;25225;-89
2023/11/13 15:08:44;;;;;;;4.90;2.17;;;0.40;99.90;;;;;;1917377;74;25294;-88
2023/11/13 15:11:33;;;;;;;3.90;2.10;;;0.40;99.90;;;;;;1926060;74;25844;-88
2023/11/13 15:14:21;;;;;;;5.20;2.17;;;0.50;99.90;;;;;;1921470;74;25847;-88
2023/11/13 15:17:10;;;;;;;6.03;2.37;;;0.40;99.90;;;;;;1915692;74;25302;-89
2023/11/13 15:19:58;;;;;;;5.60;2.20;;;0.40;99.90;;;;;;1918267;74;25285;-89
2023/11/13 15:22:48;;;;;;;4.83;2.50;;;0.30;99.90;;;;;;1932470;74;25229;-89
2023/11/13 15:28:21;;;;;;;4.77;2.27;;;0.20;99.90;;;;;;1905784;74;27230;-89
2023/11/13 15:31:09;;;;;;;8.23;2.30;;;0.20;99.90;;;;;;1857875;76;26471;-89
2023/11/13 15:33:58;;;;;;;7.50;2.30;;;0.20;99.90;;;;;;1847557;76;25284;-88
2023/11/13 15:36:47;;;;;;;15.13;3.83;;;0.30;99.90;;;;;;1873878;75;25308;-88
2023/11/13 15:39:36;;;;;;;8.13;3.87;;;0.40;99.90;;;;;;1862430;76;25294;-88
2023/11/13 15:45:07;;;;;;;6.60;3.50;;;0.40;99.90;;;;;;1936314;72;27155;-88
2023/11/13 15:47:56;;;;;;;9.17;2.80;;;0.30;99.90;;;;;;1893783;74;25717;-88
2023/11/13 15:50:44;;;;;;;8.87;4.23;;;0.20;99.90;;;;;;1892771;75;25623;-88
2023/11/13 15:53:34;;;;;;;7.63;3.73;;;0.20;99.90;;;;;;1896382;75;25229;-88
2023/11/13 15:56:22;;;;;;;7.50;4.03;;;0.10;99.90;;;;;;1893178;75;25825;-88
2023/11/13 15:59:11;;;;;;;5.60;3.50;;;0.00;99.90;;;;;;1895876;75;25298;-88
2023/11/13 16:02:03;;;;;;;8.57;4.90;;;0.00;99.90;;;;;;1902248;75;25249;-88
2023/11/13 16:07:32;;;;;;;7.33;3.20;;;-0.10;99.90;;;;;;1922050;72;27156;-89
2023/11/13 16:10:20;;;;;;;3.90;2.67;;;-0.10;99.90;;;;;;1916706;73;25270;-89
2023/11/13 16:26:18;;;;;;;3.57;2.10;;;-0.20;99.90;;;;;;1900808;74;27249;-88
2023/11/13 16:31:48;;;;;;;4.93;2.70;;;-0.20;99.90;;;;;;1940337;72;27153;-88
2023/11/13 16:37:28;;;;;;;4.87;2.60;;;-0.20;99.90;;;;;;1949199;72;27025;-89
2023/11/13 16:40:18;;;;;;;9.43;4.63;;;-0.30;99.90;;;;;;1917161;73;25289;-89
2023/11/13 16:43:07;;;;;;;7.50;3.67;;;-0.20;99.90;;;;;;1910652;75;25254;-89
2023/11/13 16:45:56;;;;;;;8.10;3.90;;;-0.30;99.90;;;;;;1912385;75;25258;-89
2023/11/13 16:48:45;;;;;;;6.00;3.30;;;-0.30;99.90;;;;;;1913486;75;25727;-88
2023/11/13 16:51:34;;;;;;;6.27;2.83;;;-0.20;99.90;;;;;;1904094;75;25204;-89
2023/11/13 16:54:23;;;;;;;3.90;1.63;;;-0.20;99.90;;;;;;1907069;75;25247;-89
2023/11/13 16:57:12;;;;;;;2.90;1.80;;;-0.10;99.90;;;;;;1897721;75;25317;-88
2023/11/13 17:00:04;;;;;;;6.03;4.40;;;0.00;99.90;;;;;;1907620;74;25387;-88
2023/11/13 17:02:52;;;;;;;4.13;2.10;;;-0.10;99.90;;;;;;1887162;74;25601;-88
2023/11/13 17:08:21;;;;;;;3.50;2.13;;;-0.10;99.90;;;;;;1930459;72;27047;-88
2023/11/13 17:11:11;;;;;;;5.63;3.70;;;-0.10;99.90;;;;;;1890857;75;25263;-88
2023/11/13 17:13:58;;;;;;;4.27;2.63;;;-0.10;99.90;;;;;;1902423;74;25763;-88
2023/11/13 17:19:26;;;;;;;7.00;3.83;;;-0.20;99.90;;;;;;1917453;72;27024;-89
2023/11/13 17:22:15;;;;;;;1.97;1.77;;;-0.20;99.90;;;;;;1897449;75;25214;-89
2023/11/13 17:25:08;;;;;;;5.10;3.47;;;-0.20;99.90;;;;;;1866758;76;25229;-89
2023/11/13 17:27:55;;;;;;;4.33;2.33;;;-0.20;99.90;;;;;;1864370;76;25796;-89
2023/11/13 17:30:45;;;;;;;2.87;2.03;;;-0.30;99.90;;;;;;1914935;75;25243;-89
2023/11/13 17:33:33;;;;;;;3.97;2.20;;;-0.30;99.90;;;;;;1911909;74;25719;-89
2023/11/13 17:36:22;;;;;;;4.23;2.80;;;-0.40;99.90;;;;;;1898596;75;25873;-89
2023/11/13 17:39:14;;;;;;;53.33;20.00;;;-0.30;99.90;;;;;;1892298;75;25844;-89
2023/11/13 17:42:01;;;;;;;3.80;2.33;;;-0.30;99.90;;;;;;1897122;75;25760;-89
2023/11/13 17:44:52;;;;;;;6.73;4.50;;;-0.30;99.90;;;;;;1886559;75;25229;-89
2023/11/13 17:47:41;;;;;;;4.60;2.57;;;-0.20;99.90;;;;;;1898826;75;25321;-89
2023/11/13 17:50:30;;;;;;;10.30;4.27;;;-0.20;99.90;;;;;;1902478;75;25336;-89
2023/11/13 18:09:10;;;;;;;10.33;5.27;;;-0.10;99.90;;;;;;2023552;69;27603;-88
2023/11/13 18:12:00;;;;;;;16.93;8.53;;;-0.10;99.90;;;;;;1965941;72;25745;-89
2023/11/13 18:14:48;;;;;;;38.00;10.80;;;-0.10;99.90;;;;;;1964418;72;25147;-89
2023/11/13 18:20:20;;;;;;;6.33;3.43;;;-0.10;99.90;;;;;;1951493;72;27157;-89
2023/11/13 18:23:09;;;;;;;4.77;3.27;;;0.00;99.90;;;;;;1934511;73;26022;-88
2023/11/13 18:25:59;;;;;;;3.47;2.50;;;0.00;99.90;;;;;;1926995;73;25498;-88
2023/11/13 18:28:49;;;;;;;5.13;2.83;;;0.00;99.90;;;;;;1935877;73;25268;-88
2023/11/13 18:31:37;;;;;;;3.90;2.80;;;0.00;99.90;;;;;;1924212;73;25150;-88
2023/11/13 18:34:26;;;;;;;5.57;2.90;;;-0.10;99.90;;;;;;1920613;73;25269;-88
2023/11/13 18:37:15;;;;;;;3.97;2.40;;;-0.10;99.90;;;;;;1946568;73;25793;-88
2023/11/13 18:40:03;;;;;;;3.67;2.57;;;-0.10;99.90;;;;;;1924978;73;25262;-88
2023/11/13 18:45:31;;;;;;;3.93;2.50;;;0.00;99.90;;;;;;1951792;72;27575;-88
2023/11/13 18:51:34;;;;;;;6.17;3.10;;;0.00;99.90;;;;;;1970838;71;27576;-88
2023/11/13 18:54:22;;;;;;;5.30;3.07;;;-0.10;99.90;;;;;;2028237;70;25224;-89
2023/11/13 18:57:10;;;;;;;8.27;3.13;;;-0.10;99.90;;;;;;2023134;70;25342;-89
2023/11/13 18:59:59;;;;;;;7.60;3.27;;;0.00;99.90;;;;;;2015725;70;25128;-89
2023/11/13 19:05:28;;;;;;;5.50;2.97;;;0.10;99.90;;;;;;1898746;74;27100;-89
2023/11/13 19:08:17;;;;;;;7.07;3.00;;;0.00;99.90;;;;;;1859786;76;25295;-89
2023/11/13 19:11:07;;;;;;;5.97;2.93;;;-0.10;99.90;;;;;;1850685;77;25393;-89
2023/11/13 19:13:56;;;;;;;5.67;3.00;;;0.00;99.90;;;;;;1839087;75;25297;-89
2023/11/13 19:16:45;;;;;;;4.93;2.53;;;-0.10;99.90;;;;;;1849336;77;25290;-88
2023/11/13 19:19:33;;;;;;;4.90;2.80;;;-0.10;99.90;;;;;;1850821;77;25214;-89
2023/11/13 19:22:22;;;;;;;4.03;2.63;;;0.00;99.90;;;;;;1854716;77;25203;-88
2023/11/13 19:25:11;;;;;;;7.13;2.67;;;-0.10;99.90;;;;;;1863306;77;25259;-89
2023/11/13 19:28:00;;;;;;;4.80;2.67;;;-0.10;99.90;;;;;;1853618;77;25243;-88
2023/11/13 19:30:49;;;;;;;4.57;2.57;;;-0.20;99.90;;;;;;1861917;77;25177;-88
2023/11/13 19:33:37;;;;;;;4.03;2.10;;;-0.10;99.90;;;;;;1868089;77;25221;-89
2023/11/13 19:36:27;;;;;;;3.40;2.40;;;-0.10;99.90;;;;;;1840600;77;25233;-88
2023/11/13 19:39:16;;;;;;;4.87;2.50;;;-0.10;99.90;;;;;;1854902;77;25191;-89
2023/11/13 19:42:05;;;;;;;5.00;2.90;;;-0.10;99.90;;;;;;1842443;76;25779;-88
2023/11/13 19:44:54;;;;;;;9.53;3.00;;;-0.10;99.90;;;;;;1824465;78;25199;-89
2023/11/13 19:51:04;;;;;;;3.87;2.37;;;-0.10;99.90;;;;;;1984417;71;27455;-89
2023/11/13 19:53:53;;;;;;;3.17;2.43;;;-0.20;99.90;;;;;;1962964;72;25148;-89